createdAt,value
2022-12-18T00:00:59.288Z,13.15
2022-12-18T00:04:07.737Z,12.00
2022-12-18T00:07:10.517Z,12.30
2022-12-18T00:10:15.488Z,11.57
2022-12-18T00:13:18.360Z,12.68
2022-12-18T00:16:23.404Z,12.68
2022-12-18T00:19:26.375Z,11.77
2022-12-18T00:22:29.035Z,10.40
2022-12-18T00:25:34.538Z,11.05
2022-12-18T00:28:37.616Z,11.13
2022-12-18T00:31:43.243Z,11.15
2022-12-18T00:34:47.915Z,12.23
2022-12-18T00:37:51.446Z,11.32
2022-12-18T00:40:54.246Z,10.73
2022-12-18T00:43:56.691Z,11.68
2022-12-18T00:46:59.574Z,13.02
2022-12-18T00:50:02.249Z,13.00
2022-12-18T00:53:05.211Z,11.10
2022-12-18T00:56:08.114Z,11.65
2022-12-18T00:59:10.829Z,11.65
2022-12-18T01:02:15.075Z,13.88
2022-12-18T01:05:19.578Z,15.75
2022-12-18T01:08:22.246Z,13.55
2022-12-18T01:11:25.300Z,14.70
2022-12-18T01:14:28.122Z,15.35
2022-12-18T01:17:31.030Z,14.18
2022-12-18T01:20:33.891Z,14.40
2022-12-18T01:23:37.018Z,12.63
2022-12-18T01:26:39.957Z,12.43
2022-12-18T01:29:43.647Z,12.50
2022-12-18T01:32:46.130Z,13.23
2022-12-18T01:35:48.970Z,13.13
2022-12-18T01:38:52.889Z,13.32
2022-12-18T01:42:05.293Z,12.97
2022-12-18T01:45:16.462Z,20.15
2022-12-18T01:48:19.973Z,15.05
2022-12-18T01:51:23.063Z,14.10
2022-12-18T01:54:25.857Z,13.45
2022-12-18T01:57:29.743Z,17.30
2022-12-18T02:00:32.856Z,17.13
2022-12-18T02:03:35.515Z,19.92
2022-12-18T02:06:42.401Z,21.27
2022-12-18T02:09:52.103Z,21.15
2022-12-18T02:13:20.062Z,14.10
2022-12-18T02:16:47.189Z,14.45
2022-12-18T02:20:08.114Z,13.00
2022-12-18T02:23:31.660Z,14.67
2022-12-18T02:26:44.846Z,13.98
2022-12-18T02:29:58.988Z,13.80
2022-12-18T02:33:08.158Z,13.18
2022-12-18T02:36:13.999Z,13.68
2022-12-18T02:39:19.323Z,15.63
2022-12-18T02:42:33.827Z,14.55
2022-12-18T02:45:48.085Z,14.80
2022-12-18T02:48:53.765Z,12.68
2022-12-18T02:52:20.647Z,13.07
2022-12-18T02:55:49.935Z,15.30
2022-12-18T02:59:03.968Z,13.95
2022-12-18T03:02:25.785Z,12.32
2022-12-18T03:05:37.443Z,13.68
2022-12-18T03:08:44.963Z,12.90
2022-12-18T03:12:13.705Z,13.38
2022-12-18T03:15:31.775Z,13.68
2022-12-18T03:18:58.537Z,12.77
2022-12-18T03:22:04.973Z,12.75
2022-12-18T03:25:20.117Z,13.80
2022-12-18T03:28:23.979Z,12.73
2022-12-18T03:31:37.055Z,13.73
2022-12-18T03:34:43.471Z,16.80
2022-12-18T03:37:49.553Z,16.25
2022-12-18T03:41:03.284Z,15.95
2022-12-18T03:44:17.546Z,16.38
2022-12-18T03:47:30.064Z,18.80
2022-12-18T03:51:02.861Z,14.97
2022-12-18T03:54:07.947Z,15.75
2022-12-18T03:57:24.298Z,16.58
2022-12-18T04:00:31.464Z,16.30
2022-12-18T04:03:43.932Z,15.52
2022-12-18T04:06:50.240Z,14.15
2022-12-18T04:09:57.759Z,15.70
2022-12-18T04:13:00.668Z,16.85
2022-12-18T04:16:04.766Z,14.48
2022-12-18T04:19:08.050Z,14.63
2022-12-18T04:22:16.079Z,15.93
2022-12-18T04:25:22.871Z,18.08
2022-12-18T04:28:42.647Z,18.27
2022-12-18T04:31:45.829Z,18.03
2022-12-18T04:34:48.571Z,18.42
2022-12-18T04:37:54.274Z,19.77
2022-12-18T04:40:57.912Z,16.98
2022-12-18T04:44:02.940Z,20.08
2022-12-18T04:47:05.655Z,18.08
2022-12-18T04:50:08.560Z,18.33
2022-12-18T04:53:11.439Z,16.40
2022-12-18T04:56:15.725Z,17.55
2022-12-18T04:59:18.338Z,14.93
2022-12-18T05:02:21.370Z,14.90
2022-12-18T05:05:24.029Z,14.95
2022-12-18T05:08:27.028Z,16.67
2022-12-18T05:11:29.910Z,15.95
2022-12-18T05:14:32.349Z,15.90
2022-12-18T05:17:35.070Z,21.02
2022-12-18T05:20:37.630Z,20.95
2022-12-18T05:23:41.055Z,22.33
2022-12-18T05:26:44.088Z,24.02
2022-12-18T05:29:46.755Z,32.75
2022-12-18T05:32:49.403Z,27.77
2022-12-18T05:35:57.458Z,23.83
2022-12-18T05:39:01.287Z,22.80
2022-12-18T05:42:04.218Z,18.98
2022-12-18T05:45:07.284Z,16.77
2022-12-18T05:48:13.234Z,20.73
2022-12-18T05:51:17.774Z,20.73
2022-12-18T05:54:20.484Z,19.13
2022-12-18T05:57:23.126Z,18.85
2022-12-18T06:00:25.987Z,30.52
2022-12-18T06:03:33.714Z,38.23
2022-12-18T06:06:36.962Z,27.92
2022-12-18T06:09:39.880Z,22.65
2022-12-18T06:12:42.756Z,37.42
2022-12-18T06:15:45.217Z,17.95
2022-12-18T06:18:48.270Z,22.05
2022-12-18T06:21:51.781Z,20.75
2022-12-18T06:24:54.767Z,21.23
2022-12-18T06:27:57.614Z,21.88
2022-12-18T06:31:00.828Z,18.02
2022-12-18T06:34:05.007Z,16.83
2022-12-18T06:37:07.868Z,19.50
2022-12-18T06:40:10.792Z,20.83
2022-12-18T06:43:13.796Z,25.75
2022-12-18T06:46:16.496Z,28.92
2022-12-18T06:49:19.391Z,25.02
2022-12-18T06:52:21.918Z,25.45
2022-12-18T06:55:24.771Z,19.20
2022-12-18T06:58:29.675Z,19.80
2022-12-18T07:01:32.577Z,19.20
2022-12-18T07:04:55.607Z,17.97
2022-12-18T07:07:59.372Z,17.27
2022-12-18T07:11:05.360Z,19.35
2022-12-18T07:14:08.143Z,17.83
2022-12-18T07:17:10.958Z,18.55
2022-12-18T07:20:14.204Z,20.55
2022-12-18T07:23:16.865Z,19.08
2022-12-18T07:26:21.537Z,17.03
2022-12-18T07:29:24.766Z,18.35
2022-12-18T07:32:30.550Z,18.08
2022-12-18T07:35:43.442Z,16.23
2022-12-18T07:38:49.468Z,16.17
2022-12-18T07:42:10.820Z,17.00
2022-12-18T07:45:16.732Z,17.63
2022-12-18T07:48:19.431Z,19.17
2022-12-18T07:51:22.592Z,15.90
2022-12-18T07:54:25.928Z,20.33
2022-12-18T08:00:51.883Z,20.15
2022-12-18T08:03:54.520Z,19.58
2022-12-18T08:06:57.390Z,18.07
2022-12-18T08:09:59.930Z,19.60
2022-12-18T08:13:05.151Z,17.42
2022-12-18T08:16:08.751Z,17.80
2022-12-18T08:19:11.488Z,16.75
2022-12-18T08:22:14.487Z,17.40
2022-12-18T08:25:17.132Z,19.88
2022-12-18T08:28:20.296Z,16.37
2022-12-18T08:31:23.624Z,16.23
2022-12-18T08:34:27.275Z,17.83
2022-12-18T08:37:30.313Z,19.13
2022-12-18T08:40:33.223Z,17.25
2022-12-18T08:43:54.986Z,18.30
2022-12-18T08:46:57.836Z,16.35
2022-12-18T08:50:00.260Z,16.42
2022-12-18T08:53:03.485Z,18.00
2022-12-18T08:56:06.575Z,17.80
2022-12-18T08:59:15.787Z,18.50
2022-12-18T09:02:21.767Z,17.15
2022-12-18T09:05:24.675Z,16.90
2022-12-18T09:08:28.020Z,17.87
2022-12-18T09:11:31.701Z,17.70
2022-12-18T09:14:34.391Z,19.23
2022-12-18T09:17:37.401Z,18.13
2022-12-18T09:20:40.419Z,17.05
2022-12-18T09:23:43.668Z,17.77
2022-12-18T09:26:47.319Z,15.70
2022-12-18T09:29:50.879Z,18.07
2022-12-18T09:32:54.991Z,17.27
2022-12-18T09:35:57.751Z,15.57
2022-12-18T09:39:04.987Z,17.27
2022-12-18T09:42:21.808Z,17.40
2022-12-18T09:45:25.176Z,17.77
2022-12-18T09:48:38.455Z,15.52
2022-12-18T09:51:48.268Z,17.17
2022-12-18T09:55:09.847Z,18.13
2022-12-18T09:58:25.451Z,16.95
2022-12-18T10:01:38.948Z,20.43
2022-12-18T10:04:58.115Z,19.27
2022-12-18T10:08:12.931Z,16.25
2022-12-18T10:11:53.227Z,17.43
2022-12-18T10:15:24.641Z,17.92
2022-12-18T10:18:45.217Z,18.15
2022-12-18T10:22:18.059Z,14.63
2022-12-18T10:25:35.342Z,18.30
2022-12-18T10:28:41.111Z,19.02
2022-12-18T10:31:44.178Z,19.75
2022-12-18T10:34:48.979Z,19.93
2022-12-18T10:38:22.734Z,24.35
2022-12-18T10:41:33.183Z,21.25
2022-12-18T10:44:35.906Z,15.17
2022-12-18T10:47:44.658Z,17.52
2022-12-18T10:54:20.666Z,19.90
2022-12-18T10:57:34.759Z,17.45
2022-12-18T11:00:38.288Z,17.58
2022-12-18T11:03:43.630Z,18.77
2022-12-18T11:07:02.770Z,18.10
2022-12-18T11:10:06.897Z,17.73
2022-12-18T11:13:17.943Z,19.52
2022-12-18T11:16:21.267Z,19.67
2022-12-18T11:19:38.259Z,18.15
2022-12-18T11:22:41.228Z,16.92
2022-12-18T11:25:53.573Z,16.50
2022-12-18T11:29:11.300Z,14.88
2022-12-18T11:32:37.223Z,13.02
2022-12-18T11:35:53.439Z,15.27
2022-12-18T11:38:58.755Z,15.43
2022-12-18T11:42:12.780Z,16.80
2022-12-18T11:45:25.000Z,18.38
2022-12-18T11:48:40.312Z,16.17
2022-12-18T11:51:53.443Z,17.77
2022-12-18T11:55:00.982Z,23.83
2022-12-18T11:58:09.674Z,17.60
2022-12-18T12:01:18.095Z,18.20
2022-12-18T12:05:02.399Z,17.70
2022-12-18T12:08:46.560Z,17.90
2022-12-18T12:11:52.190Z,15.23
2022-12-18T12:15:14.412Z,17.42
2022-12-18T12:18:28.082Z,18.15
2022-12-18T12:21:39.719Z,17.40
2022-12-18T12:24:51.319Z,17.20
2022-12-18T12:28:19.747Z,15.98
2022-12-18T12:31:44.415Z,15.35
2022-12-18T12:35:10.189Z,15.82
2022-12-18T12:38:16.327Z,16.23
2022-12-18T12:41:42.136Z,19.20
2022-12-18T12:44:56.334Z,17.27
2022-12-18T12:48:02.539Z,16.45
2022-12-18T12:51:15.024Z,15.40
2022-12-18T12:54:24.584Z,14.67
2022-12-18T12:57:41.510Z,14.80
2022-12-18T13:01:02.708Z,34.38
2022-12-18T13:04:19.796Z,18.20
2022-12-18T13:07:33.491Z,16.48
2022-12-18T13:10:43.348Z,16.98
2022-12-18T13:13:51.496Z,17.05
2022-12-18T13:17:20.374Z,13.97
2022-12-18T13:20:33.516Z,40.58
2022-12-18T13:23:41.258Z,18.08
2022-12-18T13:26:44.481Z,18.07
2022-12-18T13:29:48.392Z,16.55
2022-12-18T13:33:21.758Z,16.63
2022-12-18T13:36:31.584Z,16.52
2022-12-18T13:39:36.082Z,16.67
2022-12-18T13:42:59.753Z,18.73
2022-12-18T13:46:06.895Z,16.90
2022-12-18T13:49:36.067Z,16.70
2022-12-18T13:52:41.415Z,17.98
2022-12-18T13:55:46.515Z,19.33
2022-12-18T13:59:27.929Z,19.10
2022-12-18T14:02:31.657Z,30.15
2022-12-18T14:05:38.697Z,45.05
2022-12-18T14:08:46.176Z,29.15
2022-12-18T14:11:54.943Z,23.92
2022-12-18T14:14:59.410Z,26.58
2022-12-18T14:18:15.358Z,25.15
2022-12-18T14:21:31.575Z,28.40
2022-12-18T14:24:36.316Z,27.27
2022-12-18T14:27:45.582Z,31.25
2022-12-18T14:34:05.568Z,27.88
2022-12-18T14:37:12.773Z,24.80
2022-12-18T14:40:15.752Z,24.83
2022-12-18T14:50:04.915Z,62.70
2022-12-18T14:53:32.927Z,55.20
2022-12-18T14:56:48.413Z,36.83
2022-12-18T15:03:19.660Z,30.13
2022-12-18T15:06:32.448Z,50.63
2022-12-18T15:09:36.814Z,51.92
2022-12-18T15:13:14.259Z,57.05
2022-12-18T15:16:22.511Z,42.63
2022-12-18T15:23:03.891Z,35.50
2022-12-18T15:29:30.003Z,36.30
2022-12-18T15:36:15.740Z,34.87
2022-12-18T15:43:18.994Z,36.88
2022-12-18T15:46:28.779Z,32.72
2022-12-18T15:49:33.963Z,28.05
2022-12-18T15:52:50.235Z,24.67
2022-12-18T16:02:50.953Z,23.95
2022-12-18T16:12:44.404Z,26.38
2022-12-18T16:19:15.872Z,32.72
2022-12-18T16:28:58.245Z,29.88
2022-12-18T16:35:23.640Z,34.97
2022-12-18T16:38:33.978Z,34.05
2022-12-18T16:54:56.807Z,35.17
2022-12-18T16:58:00.477Z,39.08
2022-12-18T17:01:08.738Z,41.35
2022-12-18T17:04:11.762Z,38.57
2022-12-18T17:07:17.046Z,41.58
2022-12-18T17:10:20.065Z,35.55
2022-12-18T17:13:26.655Z,40.50
2022-12-18T17:16:29.602Z,40.72
2022-12-18T17:19:32.386Z,38.83
2022-12-18T17:22:35.259Z,41.55
2022-12-18T17:25:40.429Z,39.40
2022-12-18T17:28:43.704Z,37.67
2022-12-18T17:31:47.449Z,39.45
2022-12-18T17:34:50.503Z,49.40
2022-12-18T17:37:53.383Z,42.38
2022-12-18T17:41:02.521Z,38.67
2022-12-18T17:44:05.996Z,37.93
2022-12-18T17:47:12.291Z,39.70
2022-12-18T17:50:16.346Z,42.72
2022-12-18T17:53:19.191Z,46.08
2022-12-18T17:56:23.805Z,49.13
2022-12-18T17:59:26.382Z,71.85
2022-12-18T18:02:29.050Z,89.38
2022-12-18T18:05:33.306Z,102.30
2022-12-18T18:08:37.245Z,117.38
2022-12-18T18:11:59.147Z,80.40
2022-12-18T18:15:01.976Z,98.90
2022-12-18T18:18:05.515Z,64.20
2022-12-18T18:21:09.137Z,61.38
2022-12-18T18:24:14.782Z,54.17
2022-12-18T18:27:17.902Z,50.92
2022-12-18T18:30:20.859Z,54.28
2022-12-18T18:33:24.058Z,47.90
2022-12-18T18:36:27.530Z,47.47
2022-12-18T18:39:30.464Z,47.13
2022-12-18T18:42:33.636Z,56.28
2022-12-18T18:45:36.208Z,61.83
2022-12-18T18:48:41.662Z,54.15
2022-12-18T18:51:46.607Z,50.67
2022-12-18T18:55:11.565Z,43.17
2022-12-18T18:58:12.623Z,36.70
2022-12-18T19:01:20.481Z,34.70
2022-12-18T19:04:23.477Z,30.05
2022-12-18T19:07:30.957Z,24.90
2022-12-18T19:10:33.852Z,22.55
2022-12-18T19:13:37.139Z,24.27
2022-12-18T19:16:40.290Z,20.57
2022-12-18T19:19:43.666Z,19.42
2022-12-18T19:22:54.365Z,19.65
2022-12-18T19:26:26.894Z,17.08
2022-12-18T19:29:26.799Z,15.98
2022-12-18T19:32:31.708Z,16.15
2022-12-18T19:35:34.645Z,13.18
2022-12-18T19:38:38.079Z,10.53
2022-12-18T19:41:41.791Z,11.93
2022-12-18T19:44:48.121Z,14.95
2022-12-18T19:47:50.871Z,13.27
2022-12-18T19:50:54.358Z,12.63
2022-12-18T19:53:59.895Z,13.43
2022-12-18T19:57:07.266Z,13.15
2022-12-18T20:00:15.445Z,12.68
2022-12-18T20:03:28.688Z,13.57
2022-12-18T20:06:45.190Z,12.45
2022-12-18T20:09:48.008Z,10.87
2022-12-18T20:12:50.859Z,14.45
2022-12-18T20:15:54.393Z,12.93
2022-12-18T20:18:57.730Z,12.87
2022-12-18T20:22:01.837Z,11.05
2022-12-18T20:25:04.839Z,12.00
2022-12-18T20:28:07.686Z,13.43
2022-12-18T20:31:13.298Z,15.48
2022-12-18T20:34:17.112Z,17.15
2022-12-18T20:37:19.939Z,22.65
2022-12-18T20:40:24.271Z,20.93
2022-12-18T20:43:26.766Z,21.85
2022-12-18T20:46:29.973Z,19.15
2022-12-18T20:49:32.682Z,21.33
2022-12-18T20:52:35.666Z,18.42
2022-12-18T20:55:42.910Z,14.52
2022-12-18T20:58:45.627Z,14.32
2022-12-18T21:01:49.438Z,16.35
2022-12-18T21:04:53.435Z,15.32
2022-12-18T21:07:56.320Z,15.90
2022-12-18T21:11:40.732Z,16.63
2022-12-18T21:14:44.466Z,19.10
2022-12-18T21:17:47.246Z,12.88
2022-12-18T21:20:49.962Z,12.27
2022-12-18T21:23:52.573Z,11.95
2022-12-18T21:26:55.518Z,11.05
2022-12-18T21:29:58.281Z,11.52
2022-12-18T21:33:00.843Z,11.30
2022-12-18T21:36:07.769Z,12.27
2022-12-18T21:39:10.695Z,12.60
2022-12-18T21:42:32.339Z,11.03
2022-12-18T21:45:34.950Z,12.93
2022-12-18T21:48:40.738Z,14.70
2022-12-18T21:51:43.184Z,12.57
2022-12-18T21:54:45.857Z,10.00
2022-12-18T21:57:48.380Z,10.00
2022-12-18T22:00:51.551Z,12.57
2022-12-18T22:03:54.334Z,14.55
2022-12-18T22:06:57.583Z,25.23
2022-12-18T22:10:00.905Z,15.60
2022-12-18T22:13:07.048Z,16.60
2022-12-18T22:16:09.560Z,16.02
2022-12-18T22:19:12.568Z,12.73
2022-12-18T22:22:17.274Z,18.23
2022-12-18T22:25:20.047Z,17.23
2022-12-18T22:28:41.143Z,18.60
2022-12-18T22:31:44.078Z,17.45
2022-12-18T22:34:47.097Z,14.50
2022-12-18T22:37:49.819Z,11.95
2022-12-18T22:40:52.707Z,11.10
2022-12-18T22:43:55.740Z,13.33
2022-12-18T22:47:06.568Z,13.07
2022-12-18T22:50:13.082Z,10.57
2022-12-18T22:53:20.006Z,11.93
2022-12-18T22:56:23.226Z,9.43
2022-12-18T22:59:26.783Z,8.65
2022-12-18T23:02:29.656Z,7.50
2022-12-18T23:05:32.452Z,8.80
2022-12-18T23:08:35.545Z,10.20
2022-12-18T23:11:38.174Z,9.25
2022-12-18T23:14:41.133Z,11.10
2022-12-18T23:17:43.549Z,10.32
2022-12-18T23:20:46.576Z,10.25
2022-12-18T23:23:50.311Z,11.80
2022-12-18T23:26:53.235Z,10.70
2022-12-18T23:29:56.022Z,10.02
2022-12-18T23:33:01.218Z,10.63
2022-12-18T23:36:05.332Z,10.85
2022-12-18T23:39:08.294Z,11.25
2022-12-18T23:42:11.056Z,9.63
2022-12-18T23:45:17.989Z,9.47
2022-12-18T23:48:21.240Z,10.98
2022-12-18T23:51:26.058Z,9.32
2022-12-18T23:54:32.775Z,10.57
2022-12-18T23:57:36.663Z,10.32
